createdAt,value
2022-10-23T00:01:46.756Z,98297.63
2022-10-23T00:04:19.052Z,98296.69
2022-10-23T00:06:48.655Z,98299.50
2022-10-23T00:09:20.622Z,98292.84
2022-10-23T00:11:50.789Z,98287.88
2022-10-23T00:14:23.826Z,98278.63
2022-10-23T00:16:52.369Z,98275.28
2022-10-23T00:19:20.798Z,98269.34
2022-10-23T00:21:49.173Z,98277.34
2022-10-23T00:24:17.516Z,98270.28
2022-10-23T00:26:45.741Z,98272.34
2022-10-23T00:29:14.178Z,98275.91
2022-10-23T00:31:43.767Z,98282.00
2022-10-23T00:34:12.050Z,98280.44
2022-10-23T00:36:41.087Z,98281.47
2022-10-23T00:39:09.807Z,98285.38
2022-10-23T00:41:38.141Z,98288.78
2022-10-23T00:44:11.049Z,98290.56
2022-10-23T00:46:40.849Z,98283.72
2022-10-23T00:51:46.210Z,98283.91
2022-10-23T00:54:25.654Z,98281.44
2022-10-23T00:56:58.046Z,98269.47
2022-10-23T00:59:26.734Z,98271.44
2022-10-23T01:01:55.657Z,98269.78
2022-10-23T01:04:26.671Z,98269.09
2022-10-23T01:07:05.061Z,98272.44
2022-10-23T01:09:39.753Z,98270.88
2022-10-23T01:12:17.594Z,98272.72
2022-10-23T01:15:01.594Z,98266.00
2022-10-23T01:17:40.858Z,98274.03
2022-10-23T01:20:33.991Z,98268.22
2022-10-23T01:23:49.092Z,98267.03
2022-10-23T01:26:32.300Z,98259.00
2022-10-23T01:29:06.486Z,98259.19
2022-10-23T01:31:39.457Z,98252.53
2022-10-23T01:34:13.708Z,98252.25
2022-10-23T01:36:48.948Z,98247.38
2022-10-23T01:39:23.460Z,98249.19
2022-10-23T01:41:56.150Z,98255.44
2022-10-23T01:44:37.619Z,98246.47
2022-10-23T01:47:08.715Z,98240.66
2022-10-23T01:49:51.994Z,98234.59
2022-10-23T01:52:22.253Z,98237.19
2022-10-23T01:54:54.700Z,98239.72
2022-10-23T01:57:24.903Z,98235.66
2022-10-23T02:00:00.858Z,98238.44
2022-10-23T02:02:31.714Z,98232.31
2022-10-23T02:05:05.042Z,98237.06
2022-10-23T02:07:33.620Z,98233.72
2022-10-23T02:10:02.201Z,98225.13
2022-10-23T02:12:41.210Z,98219.66
2022-10-23T02:15:15.293Z,98215.13
2022-10-23T02:17:52.661Z,98216.88
2022-10-23T02:20:25.805Z,98218.25
2022-10-23T02:23:05.924Z,98217.03
2022-10-23T02:25:40.789Z,98206.88
2022-10-23T02:28:16.247Z,98212.88
2022-10-23T02:30:51.295Z,98204.47
2022-10-23T02:33:20.476Z,98205.22
2022-10-23T02:35:49.957Z,98212.41
2022-10-23T02:38:36.556Z,98203.94
2022-10-23T02:41:30.261Z,98196.34
2022-10-23T02:44:21.792Z,98197.28
2022-10-23T02:47:03.585Z,98193.94
2022-10-23T02:49:40.182Z,98184.63
2022-10-23T02:52:19.399Z,98190.06
2022-10-23T02:55:06.696Z,98185.91
2022-10-23T02:57:54.435Z,98175.63
2022-10-23T03:00:24.359Z,98180.81
2022-10-23T03:02:59.732Z,98173.91
2022-10-23T03:05:34.873Z,98173.97
2022-10-23T03:08:05.575Z,98181.75
2022-10-23T03:10:33.836Z,98179.34
2022-10-23T03:13:02.222Z,98177.69
2022-10-23T03:15:35.793Z,98170.22
2022-10-23T03:18:05.708Z,98164.94
2022-10-23T03:20:35.169Z,98173.09
2022-10-23T03:23:03.614Z,98176.16
2022-10-23T03:25:31.835Z,98169.03
2022-10-23T03:28:01.058Z,98170.78
2022-10-23T03:30:29.356Z,98169.22
2022-10-23T03:32:57.582Z,98163.19
2022-10-23T03:35:27.375Z,98162.38
2022-10-23T03:37:55.739Z,98153.69
2022-10-23T03:40:25.830Z,98155.44
2022-10-23T03:42:54.042Z,98159.78
2022-10-23T03:45:22.356Z,98156.38
2022-10-23T03:47:51.843Z,98159.13
2022-10-23T03:50:21.159Z,98151.38
2022-10-23T03:52:51.133Z,98153.84
2022-10-23T03:55:19.448Z,98151.66
2022-10-23T03:57:47.687Z,98150.00
2022-10-23T04:00:16.803Z,98138.91
2022-10-23T04:02:45.688Z,98143.53
2022-10-23T04:05:14.570Z,98144.72
2022-10-23T04:07:53.229Z,98150.03
2022-10-23T04:10:21.704Z,98154.00
2022-10-23T04:12:49.940Z,98161.22
2022-10-23T04:15:18.600Z,98159.19
2022-10-23T04:17:48.083Z,98158.44
2022-10-23T04:20:16.586Z,98156.66
2022-10-23T04:22:45.187Z,98153.09
2022-10-23T04:25:16.515Z,98150.84
2022-10-23T04:27:45.166Z,98158.59
2022-10-23T04:30:14.512Z,98159.53
2022-10-23T04:32:44.805Z,98161.13
2022-10-23T04:35:13.044Z,98165.25
2022-10-23T04:37:41.566Z,98155.09
2022-10-23T04:40:11.309Z,98162.84
2022-10-23T04:42:41.444Z,98158.53
2022-10-23T04:45:11.204Z,98156.00
2022-10-23T04:47:42.024Z,98152.50
2022-10-23T04:50:10.702Z,98155.00
2022-10-23T04:52:59.007Z,98152.59
2022-10-23T04:55:51.098Z,98150.94
2022-10-23T04:58:29.948Z,98158.53
2022-10-23T05:00:59.686Z,98156.84
2022-10-23T05:03:28.504Z,98148.25
2022-10-23T05:05:57.857Z,98162.50
2022-10-23T05:08:45.615Z,98154.63
2022-10-23T05:11:52.122Z,98157.31
2022-10-23T05:14:22.951Z,98147.09
2022-10-23T05:16:56.856Z,98151.31
2022-10-23T05:19:34.676Z,98140.22
2022-10-23T05:22:03.751Z,98143.41
2022-10-23T05:24:50.449Z,98141.09
2022-10-23T05:27:21.999Z,98136.09
2022-10-23T05:29:53.327Z,98135.06
2022-10-23T05:32:27.269Z,98130.75
2022-10-23T05:34:56.454Z,98137.47
2022-10-23T05:37:28.609Z,98143.41
2022-10-23T05:40:09.295Z,98138.94
2022-10-23T05:42:41.526Z,98140.53
2022-10-23T05:45:13.373Z,98131.00
2022-10-23T05:48:10.711Z,98124.06
2022-10-23T05:51:05.580Z,98126.59
2022-10-23T05:53:57.574Z,98124.91
2022-10-23T05:56:41.670Z,98122.44
2022-10-23T05:59:22.139Z,98112.09
2022-10-23T06:02:18.079Z,98110.44
2022-10-23T06:04:54.713Z,98109.56
2022-10-23T06:07:25.874Z,98106.34
2022-10-23T06:09:55.600Z,98109.03
2022-10-23T06:12:24.274Z,98098.69
2022-10-23T06:14:54.368Z,98109.03
2022-10-23T06:17:30.368Z,98109.19
2022-10-23T06:20:02.421Z,98108.19
2022-10-23T06:22:35.252Z,98105.59
2022-10-23T06:25:17.665Z,98104.69
2022-10-23T06:27:46.400Z,98103.94
2022-10-23T06:30:15.178Z,98096.25
2022-10-23T06:32:45.498Z,98095.38
2022-10-23T06:35:14.387Z,98103.19
2022-10-23T06:37:42.890Z,98100.44
2022-10-23T06:40:19.048Z,98104.88
2022-10-23T06:42:59.741Z,98099.88
2022-10-23T06:45:38.716Z,98099.97
2022-10-23T06:48:17.627Z,98093.69
2022-10-23T06:51:08.303Z,98093.03
2022-10-23T06:53:45.207Z,98099.06
2022-10-23T06:56:39.653Z,98099.06
2022-10-23T06:59:09.871Z,98089.53
2022-10-23T07:01:39.616Z,98092.84
2022-10-23T07:04:10.330Z,98101.53
2022-10-23T07:06:39.016Z,98093.69
2022-10-23T07:09:08.411Z,98085.84
2022-10-23T07:11:54.964Z,98091.84
2022-10-23T07:14:32.161Z,98105.50
2022-10-23T07:17:03.439Z,98097.66
2022-10-23T07:19:33.026Z,98100.31
2022-10-23T07:22:14.921Z,98095.81
2022-10-23T07:24:56.381Z,98098.41
2022-10-23T07:27:29.300Z,98097.66
2022-10-23T07:30:00.354Z,98092.50
2022-10-23T07:32:32.690Z,98088.06
2022-10-23T07:35:21.064Z,98089.63
2022-10-23T07:38:06.016Z,98087.88
2022-10-23T07:40:38.503Z,98101.44
2022-10-23T07:43:09.317Z,98104.50
2022-10-23T07:45:37.950Z,98108.56
2022-10-23T07:48:16.112Z,98115.16
2022-10-23T07:51:03.528Z,98109.50
2022-10-23T07:53:32.805Z,98114.50
2022-10-23T07:56:15.800Z,98110.63
2022-10-23T07:59:02.873Z,98111.91
2022-10-23T08:01:34.397Z,98104.69
2022-10-23T08:04:03.008Z,98109.75
2022-10-23T08:06:35.293Z,98110.38
2022-10-23T08:09:06.518Z,98111.78
2022-10-23T08:11:37.753Z,98104.56
2022-10-23T08:14:09.316Z,98105.00
2022-10-23T08:16:40.267Z,98091.56
2022-10-23T08:19:17.875Z,98090.34
2022-10-23T08:21:49.352Z,98095.34
2022-10-23T08:24:17.939Z,98094.97
2022-10-23T08:26:50.921Z,98081.91
2022-10-23T08:29:22.784Z,98072.81
2022-10-23T08:31:55.891Z,98069.09
2022-10-23T08:34:32.742Z,98078.88
2022-10-23T08:37:16.596Z,98069.16
2022-10-23T08:39:52.649Z,98062.84
2022-10-23T08:42:57.907Z,98054.56
2022-10-23T08:45:33.938Z,98057.59
2022-10-23T08:48:19.015Z,98064.34
2022-10-23T08:51:23.349Z,98055.19
2022-10-23T08:53:59.299Z,98055.50
2022-10-23T08:56:32.723Z,98043.03
2022-10-23T08:59:07.964Z,98040.94
2022-10-23T09:01:42.699Z,98039.78
2022-10-23T09:04:13.266Z,98045.59
2022-10-23T09:06:53.066Z,98054.41
2022-10-23T09:10:05.109Z,98043.59
2022-10-23T09:12:33.732Z,98052.94
2022-10-23T09:15:29.411Z,98047.19
2022-10-23T09:18:01.771Z,98051.03
2022-10-23T09:20:35.192Z,98047.69
2022-10-23T09:23:09.270Z,98048.66
2022-10-23T09:25:42.001Z,98055.28
2022-10-23T09:28:21.031Z,98051.78
2022-10-23T09:30:50.089Z,98041.06
2022-10-23T09:33:22.192Z,98034.56
2022-10-23T09:35:57.758Z,98044.41
2022-10-23T09:38:32.650Z,98046.34
2022-10-23T09:41:08.288Z,98040.47
2022-10-23T09:43:36.602Z,98028.88
2022-10-23T09:46:09.647Z,98031.84
2022-10-23T09:48:42.104Z,98024.16
2022-10-23T09:51:20.111Z,98026.53
2022-10-23T09:53:52.776Z,98026.53
2022-10-23T09:56:32.122Z,98022.53
2022-10-23T09:59:02.855Z,98014.72
2022-10-23T10:01:36.064Z,98002.09
2022-10-23T10:04:39.572Z,98004.13
2022-10-23T10:07:20.947Z,98005.03
2022-10-23T10:09:49.496Z,98016.63
2022-10-23T10:12:43.884Z,98017.69
2022-10-23T10:15:21.660Z,98025.13
2022-10-23T10:18:01.972Z,98030.56
2022-10-23T10:20:52.358Z,98027.22
2022-10-23T10:23:32.322Z,98012.28
2022-10-23T10:26:13.054Z,98006.16
2022-10-23T10:29:08.701Z,98007.81
2022-10-23T10:31:58.883Z,98014.28
2022-10-23T10:34:38.758Z,98005.84
2022-10-23T10:37:25.090Z,97988.09
2022-10-23T10:40:05.186Z,97991.38
2022-10-23T10:43:02.199Z,97979.59
2022-10-23T10:45:37.249Z,97969.66
2022-10-23T10:48:24.899Z,97956.59
2022-10-23T10:51:27.086Z,97938.53
2022-10-23T10:54:21.366Z,97944.44
2022-10-23T10:56:50.312Z,97949.41
2022-10-23T10:59:24.863Z,97955.19
2022-10-23T11:02:03.796Z,97969.88
2022-10-23T11:04:39.584Z,97975.28
2022-10-23T11:07:20.287Z,97970.00
2022-10-23T11:09:50.331Z,97967.94
2022-10-23T11:12:26.223Z,97966.03
2022-10-23T11:14:54.809Z,97964.25
2022-10-23T11:17:29.828Z,97954.75
2022-10-23T11:20:05.005Z,97945.03
2022-10-23T11:22:38.303Z,97940.06
2022-10-23T11:25:41.518Z,97931.03
2022-10-23T11:28:27.660Z,97928.16
2022-10-23T11:31:11.858Z,97925.00
2022-10-23T11:34:37.469Z,97907.59
2022-10-23T11:37:09.106Z,97906.63
2022-10-23T11:39:40.393Z,97897.97
2022-10-23T11:42:31.907Z,97900.44
2022-10-23T11:45:00.294Z,97898.38
2022-10-23T11:47:38.881Z,97898.53
2022-10-23T11:50:29.437Z,97902.06
2022-10-23T11:53:14.783Z,97901.97
2022-10-23T11:56:04.997Z,97897.28
2022-10-23T11:58:45.798Z,97885.63
2022-10-23T12:01:33.612Z,97894.94
2022-10-23T12:04:05.288Z,97894.03
2022-10-23T12:06:42.485Z,97895.13
2022-10-23T12:09:28.077Z,97878.69
2022-10-23T12:12:16.454Z,97870.31
2022-10-23T12:14:46.974Z,97870.88
2022-10-23T12:17:36.853Z,97863.59
2022-10-23T12:20:32.019Z,97874.28
2022-10-23T12:23:30.369Z,97857.66
2022-10-23T12:26:22.423Z,97861.94
2022-10-23T12:29:00.650Z,97865.50
2022-10-23T12:31:45.531Z,97848.69
2022-10-23T12:34:31.000Z,97855.56
2022-10-23T12:37:16.033Z,97858.88
2022-10-23T12:39:53.258Z,97854.84
2022-10-23T12:42:26.458Z,97850.56
2022-10-23T12:45:03.899Z,97854.00
2022-10-23T12:47:32.543Z,97842.31
2022-10-23T12:50:00.932Z,97843.34
2022-10-23T12:52:29.201Z,97833.97
2022-10-23T12:54:59.380Z,97838.88
2022-10-23T12:57:30.267Z,97826.66
2022-10-23T13:00:04.469Z,97825.19
2022-10-23T13:02:34.179Z,97814.28
2022-10-23T13:05:09.506Z,97818.81
2022-10-23T13:07:44.877Z,97807.41
2022-10-23T13:10:19.303Z,97798.72
2022-10-23T13:13:05.772Z,97792.66
2022-10-23T13:15:43.000Z,97790.09
2022-10-23T13:18:14.258Z,97788.97
2022-10-23T13:20:56.410Z,97773.09
2022-10-23T13:23:31.498Z,97773.16
2022-10-23T13:26:03.694Z,97787.66
2022-10-23T13:28:42.184Z,97781.13
2022-10-23T13:31:29.390Z,97781.19
2022-10-23T13:34:23.469Z,97788.91
2022-10-23T13:37:01.972Z,97776.09
2022-10-23T13:39:33.382Z,97780.88
2022-10-23T13:42:14.486Z,97779.19
2022-10-23T13:44:43.452Z,97777.56
2022-10-23T13:47:14.497Z,97778.88
2022-10-23T13:49:42.882Z,97773.25
2022-10-23T13:52:14.903Z,97781.56
2022-10-23T13:54:43.456Z,97771.91
2022-10-23T13:57:16.617Z,97774.16
2022-10-23T13:59:45.022Z,97774.81
2022-10-23T14:02:22.102Z,97775.44
2022-10-23T14:04:51.662Z,97766.56
2022-10-23T14:07:20.108Z,97763.09
2022-10-23T14:09:50.522Z,97770.75
2022-10-23T14:12:20.464Z,97767.09
2022-10-23T14:14:52.656Z,97767.06
2022-10-23T14:17:21.878Z,97764.25
2022-10-23T14:19:51.061Z,97766.66
2022-10-23T14:22:19.317Z,97767.94
2022-10-23T14:24:47.778Z,97764.00
2022-10-23T14:27:16.030Z,97765.28
2022-10-23T14:29:45.655Z,97758.69
2022-10-23T14:32:14.125Z,97760.00
2022-10-23T14:34:45.824Z,97747.19
2022-10-23T14:37:14.222Z,97749.28
2022-10-23T14:39:46.214Z,97750.56
2022-10-23T14:42:17.460Z,97750.19
2022-10-23T14:44:49.284Z,97745.13
2022-10-23T14:47:19.200Z,97750.66
2022-10-23T14:49:52.652Z,97759.50
2022-10-23T14:52:21.219Z,97750.81
2022-10-23T14:54:49.685Z,97740.50
2022-10-23T14:57:20.885Z,97730.47
2022-10-23T14:59:51.288Z,97732.44
2022-10-23T15:02:19.601Z,97736.31
2022-10-23T15:04:48.063Z,97733.84
2022-10-23T15:07:16.432Z,97724.50
2022-10-23T15:09:44.861Z,97714.84
2022-10-23T15:12:13.202Z,97714.84
2022-10-23T15:14:41.480Z,97714.03
2022-10-23T15:17:15.411Z,97712.53
2022-10-23T15:19:44.316Z,97716.13
2022-10-23T15:22:12.579Z,97725.94
2022-10-23T15:24:40.923Z,97711.19
2022-10-23T15:29:42.981Z,97710.72
2022-10-23T15:32:13.470Z,97707.00
2022-10-23T15:34:42.871Z,97698.31
2022-10-23T15:37:11.789Z,97697.50
2022-10-23T15:39:40.253Z,97703.56
2022-10-23T15:42:08.554Z,97702.72
2022-10-23T15:44:36.948Z,97695.53
2022-10-23T15:47:05.328Z,97689.31
2022-10-23T15:49:35.058Z,97681.59
2022-10-23T15:52:04.217Z,97672.63
2022-10-23T15:54:33.187Z,97677.34
2022-10-23T15:57:02.608Z,97681.09
2022-10-23T15:59:32.853Z,97683.72
2022-10-23T16:02:01.395Z,97683.34
2022-10-23T16:04:30.003Z,97675.56
2022-10-23T16:06:59.645Z,97666.25
2022-10-23T16:09:27.918Z,97661.16
2022-10-23T16:11:56.194Z,97663.91
2022-10-23T16:14:24.418Z,97651.75
2022-10-23T16:16:52.650Z,97665.19
2022-10-23T16:19:21.087Z,97676.72
2022-10-23T16:21:49.450Z,97670.72
2022-10-23T16:24:19.165Z,97683.97
2022-10-23T16:26:52.913Z,97683.50
2022-10-23T16:29:21.933Z,97686.72
2022-10-23T16:31:50.325Z,97692.25
2022-10-23T16:34:18.757Z,97686.66
2022-10-23T16:36:47.575Z,97695.50
2022-10-23T16:39:22.952Z,97688.59
2022-10-23T16:42:09.994Z,97668.09
2022-10-23T16:44:56.981Z,97684.44
2022-10-23T16:47:25.391Z,97661.34
2022-10-23T16:49:53.945Z,97663.44
2022-10-23T16:52:22.328Z,97680.91
2022-10-23T16:54:52.026Z,97668.78
2022-10-23T16:57:20.511Z,97667.44
2022-10-23T16:59:49.028Z,97656.97
2022-10-23T17:02:17.472Z,97657.81
2022-10-23T17:04:46.160Z,97659.47
2022-10-23T17:07:14.567Z,97673.97
2022-10-23T17:09:46.517Z,97685.94
2022-10-23T17:12:17.313Z,97689.72
2022-10-23T17:14:45.593Z,97686.75
2022-10-23T17:17:13.986Z,97697.22
2022-10-23T17:19:46.497Z,97704.84
2022-10-23T17:22:15.788Z,97708.06
2022-10-23T17:24:47.527Z,97708.06
2022-10-23T17:27:20.102Z,97703.25
2022-10-23T17:29:48.585Z,97711.84
2022-10-23T17:32:17.020Z,97730.00
2022-10-23T17:34:46.484Z,97746.38
2022-10-23T17:37:14.867Z,97746.38
2022-10-23T17:39:43.261Z,97778.31
2022-10-23T17:42:11.591Z,97767.75
2022-10-23T17:44:41.311Z,97750.03
2022-10-23T17:47:09.656Z,97740.84
2022-10-23T17:49:39.545Z,97726.34
2022-10-23T17:52:12.263Z,97737.53
2022-10-23T17:54:40.768Z,97737.09
2022-10-23T17:57:09.308Z,97742.06
2022-10-23T17:59:39.064Z,97732.72
2022-10-23T18:02:08.865Z,97739.59
2022-10-23T18:04:37.304Z,97741.56
2022-10-23T18:07:05.624Z,97743.44
2022-10-23T18:09:34.003Z,97733.00
2022-10-23T18:12:02.300Z,97745.09
2022-10-23T18:14:34.317Z,97745.25
2022-10-23T18:17:05.117Z,97739.84
2022-10-23T18:19:34.914Z,97750.88
2022-10-23T18:22:03.217Z,97765.47
2022-10-23T18:24:32.130Z,97779.53
2022-10-23T18:27:00.557Z,97796.97
2022-10-23T18:29:28.807Z,97792.25
2022-10-23T18:31:57.246Z,97805.91
2022-10-23T18:34:26.559Z,97819.56
2022-10-23T18:36:56.839Z,97827.88
2022-10-23T18:39:26.398Z,97842.28
2022-10-23T18:41:57.594Z,97856.06
2022-10-23T18:44:28.947Z,97884.00
2022-10-23T18:46:58.813Z,97887.06
2022-10-23T18:49:27.817Z,97883.63
2022-10-23T18:51:58.277Z,97865.31
2022-10-23T18:54:26.573Z,97863.53
2022-10-23T18:56:55.084Z,97849.75
2022-10-23T18:59:23.517Z,97831.44
2022-10-23T19:01:52.077Z,97848.94
2022-10-23T19:04:20.827Z,97862.16
2022-10-23T19:06:51.029Z,97856.94
2022-10-23T19:09:21.190Z,97863.25
2022-10-23T19:11:49.577Z,97864.22
2022-10-23T19:14:17.998Z,97852.25
2022-10-23T19:16:57.517Z,97861.06
2022-10-23T19:19:31.084Z,97858.59
2022-10-23T19:22:00.514Z,97861.34
2022-10-23T19:24:37.166Z,97883.22
2022-10-23T19:27:05.914Z,97882.53
2022-10-23T19:29:34.896Z,97880.59
2022-10-23T19:32:03.294Z,97886.66
2022-10-23T19:34:31.569Z,97870.97
2022-10-23T19:36:59.949Z,97870.16
2022-10-23T19:39:29.738Z,97868.78
2022-10-23T19:41:58.508Z,97874.13
2022-10-23T19:44:27.295Z,97873.59
2022-10-23T19:46:55.793Z,97863.28
2022-10-23T19:49:24.285Z,97855.28
2022-10-23T19:51:52.777Z,97853.91
2022-10-23T19:54:22.721Z,97849.00
2022-10-23T19:56:52.348Z,97855.03
2022-10-23T19:59:20.775Z,97857.78
2022-10-23T20:01:49.526Z,97862.34
2022-10-23T20:04:19.535Z,97856.41
2022-10-23T20:06:48.373Z,97847.06
2022-10-23T20:09:17.111Z,97852.31
2022-10-23T20:11:45.659Z,97845.56
2022-10-23T20:14:15.823Z,97847.19
2022-10-23T20:16:46.957Z,97853.41
2022-10-23T20:21:51.349Z,97855.03
2022-10-23T20:24:21.910Z,97857.66
2022-10-23T20:26:53.812Z,97859.72
2022-10-23T20:29:24.822Z,97852.97
2022-10-23T20:31:53.780Z,97851.19
2022-10-23T20:34:22.240Z,97847.75
2022-10-23T20:36:50.935Z,97838.25
2022-10-23T20:39:24.560Z,97837.41
2022-10-23T20:41:55.188Z,97837.25
2022-10-23T20:44:25.626Z,97839.19
2022-10-23T20:46:54.331Z,97846.47
2022-10-23T20:49:23.869Z,97838.50
2022-10-23T20:51:55.199Z,97835.72
2022-10-23T20:54:25.303Z,97846.19
2022-10-23T20:56:53.851Z,97847.25
2022-10-23T20:59:22.104Z,97857.72
2022-10-23T21:01:55.190Z,97848.06
2022-10-23T21:04:27.461Z,97854.00
2022-10-23T21:07:09.939Z,97850.53
2022-10-23T21:09:39.548Z,97851.78
2022-10-23T21:12:08.593Z,97858.09
2022-10-23T21:14:37.633Z,97859.19
2022-10-23T21:17:08.601Z,97865.06
2022-10-23T21:19:36.830Z,97862.31
2022-10-23T21:22:05.249Z,97869.44
2022-10-23T21:24:33.523Z,97872.66
2022-10-23T21:27:01.751Z,97866.81
2022-10-23T21:29:30.083Z,97870.50
2022-10-23T21:32:01.560Z,97871.09
2022-10-23T21:34:31.749Z,97875.09
2022-10-23T21:37:15.550Z,97888.38
2022-10-23T21:39:44.879Z,97886.63
2022-10-23T21:42:14.633Z,97879.81
2022-10-23T21:44:44.025Z,97876.53
2022-10-23T21:47:12.382Z,97881.50
2022-10-23T21:49:42.131Z,97879.53
2022-10-23T21:52:10.410Z,97874.84
2022-10-23T21:54:38.733Z,97864.53
2022-10-23T21:57:14.495Z,97866.97
2022-10-23T21:59:42.912Z,97869.59
2022-10-23T22:02:11.480Z,97854.72
2022-10-23T22:04:41.823Z,97867.97
2022-10-23T22:07:14.752Z,97842.44
2022-10-23T22:09:43.761Z,97842.59
2022-10-23T22:12:13.017Z,97844.25
2022-10-23T22:14:41.364Z,97852.25
2022-10-23T22:17:09.774Z,97854.72
2022-10-23T22:19:38.303Z,97845.75
2022-10-23T22:22:08.344Z,97836.84
2022-10-23T22:24:37.803Z,97837.53
2022-10-23T22:27:06.324Z,97840.72
2022-10-23T22:29:34.708Z,97832.03
2022-10-23T22:32:03.071Z,97832.19
2022-10-23T22:34:51.865Z,97833.69
2022-10-23T22:37:21.853Z,97838.53
2022-10-23T22:39:52.856Z,97829.72
2022-10-23T22:42:21.286Z,97830.00
2022-10-23T22:44:49.646Z,97833.31
2022-10-23T22:47:18.067Z,97842.97
2022-10-23T22:49:46.306Z,97822.84
2022-10-23T22:52:14.845Z,97839.94
2022-10-23T22:54:44.449Z,97830.59
2022-10-23T22:57:12.716Z,97828.41
2022-10-23T22:59:41.275Z,97835.00
2022-10-23T23:02:09.989Z,97832.22
2022-10-23T23:04:39.255Z,97848.22
2022-10-23T23:07:09.256Z,97840.66
2022-10-23T23:09:40.209Z,97846.88
2022-10-23T23:12:12.253Z,97846.19
2022-10-23T23:14:41.748Z,97844.84
2022-10-23T23:17:10.887Z,97851.34
2022-10-23T23:19:40.262Z,97856.97
2022-10-23T23:22:08.775Z,97856.84
2022-10-23T23:24:37.160Z,97863.88
2022-10-23T23:27:05.524Z,97863.47
2022-10-23T23:29:35.207Z,97859.63
2022-10-23T23:32:05.992Z,97853.72
2022-10-23T23:34:34.367Z,97848.19
2022-10-23T23:37:02.731Z,97860.19
2022-10-23T23:39:30.921Z,97858.00
2022-10-23T23:41:59.390Z,97860.97
2022-10-23T23:44:28.151Z,97858.28
2022-10-23T23:46:57.882Z,97849.16
2022-10-23T23:49:26.469Z,97846.16
2022-10-23T23:51:54.749Z,97847.34
2022-10-23T23:54:23.111Z,97849.97
2022-10-23T23:56:51.488Z,97852.06
2022-10-23T23:59:19.819Z,97850.56
